RAM287 GMMN-FKKD
Flight info
| Callsign | RAM287 |
|---|---|
| Flight time | 5h 2m |
| Altitude | 35000 |
| Route | FOBAC UR722 MABAP DCT BULIS UR981 NY UT365 BOVDA UL684 ABC UW225 AKLIS UA604 KOKAM KOKAM1R |
| Aircraft | B738/M-SDE3FGHIRWY/LB1 |
Departure
| Time | 2026-05-05 19:05 |
|---|---|
| Airport | Mohammed V International Airport (GMMN) |
Arrival
| Time | 2026-05-06 00:08 |
|---|---|
| Airport | Douala International Airport (FKKD) |
| Time | Latitude | Longitude | Altitude | Speed | Heading |
|---|---|---|---|---|---|
| 2026-05-05 18:56 | 33.37168 | -7.58181 | 652 ft | 0 kts | 65° |
| 2026-05-05 18:59 | 33.37167 | -7.58183 | 652 ft | 3 kts | 65° |
| 2026-05-05 18:59 | 33.37155 | -7.58211 | 655 ft | 4 kts | 64° |
| 2026-05-05 19:00 | 33.37149 | -7.58238 | 653 ft | 2 kts | 93° |
| 2026-05-05 19:00 | 33.37152 | -7.58267 | 653 ft | 4 kts | 112° |
| 2026-05-05 19:00 | 33.37167 | -7.58291 | 653 ft | 4 kts | 155° |
| 2026-05-05 19:00 | 33.37174 | -7.58295 | 655 ft | 1 kts | 164° |
| 2026-05-05 19:02 | 33.37173 | -7.58294 | 652 ft | 1 kts | 164° |
| 2026-05-05 19:03 | 33.37152 | -7.58287 | 652 ft | 6 kts | 164° |
| 2026-05-05 19:03 | 33.37100 | -7.58270 | 653 ft | 9 kts | 164° |
| 2026-05-05 19:03 | 33.37036 | -7.58249 | 654 ft | 10 kts | 164° |
| 2026-05-05 19:03 | 33.36966 | -7.58234 | 652 ft | 10 kts | 190° |
| 2026-05-05 19:04 | 33.36928 | -7.58303 | 652 ft | 11 kts | 252° |
| 2026-05-05 19:04 | 33.36909 | -7.58388 | 654 ft | 11 kts | 255° |
| 2026-05-05 19:04 | 33.35219 | -7.58261 | 656 ft | 7 kts | 344° |
| 2026-05-05 19:04 | 33.35311 | -7.58293 | 653 ft | 23 kts | 343° |
| 2026-05-05 19:05 | 33.35723 | -7.58437 | 644 ft | 100 kts | 344° |
| 2026-05-05 19:05 | 33.36611 | -7.58729 | 682 ft | 160 kts | 345° |
| 2026-05-05 19:05 | 33.37732 | -7.59083 | 1403 ft | 168 kts | 346° |
| 2026-05-05 19:05 | 33.38850 | -7.59439 | 2441 ft | 164 kts | 345° |
| 2026-05-05 19:06 | 33.39947 | -7.60080 | 2959 ft | 192 kts | 324° |
| 2026-05-05 19:06 | 33.40824 | -7.61385 | 3248 ft | 216 kts | 298° |
| 2026-05-05 19:06 | 33.41239 | -7.63213 | 3497 ft | 239 kts | 276° |
| 2026-05-05 19:06 | 33.41043 | -7.65190 | 4213 ft | 242 kts | 253° |
| 2026-05-05 19:07 | 33.40401 | -7.67038 | 5099 ft | 238 kts | 248° |
| 2026-05-05 19:07 | 33.39752 | -7.68844 | 6019 ft | 235 kts | 248° |
| 2026-05-05 19:07 | 33.39121 | -7.70662 | 6758 ft | 237 kts | 249° |
| 2026-05-05 19:07 | 33.38499 | -7.72501 | 7494 ft | 240 kts | 249° |
| 2026-05-05 19:08 | 33.37884 | -7.74359 | 8240 ft | 240 kts | 249° |
| 2026-05-05 19:08 | 33.37273 | -7.76227 | 8991 ft | 242 kts | 249° |
| 2026-05-05 19:08 | 33.36662 | -7.78107 | 9737 ft | 244 kts | 249° |
| 2026-05-05 19:08 | 33.36046 | -7.80004 | 10442 ft | 245 kts | 249° |
| 2026-05-05 19:09 | 33.35431 | -7.81904 | 11139 ft | 245 kts | 249° |
| 2026-05-05 19:09 | 33.34676 | -7.83737 | 11798 ft | 249 kts | 234° |
| 2026-05-05 19:09 | 33.33440 | -7.85288 | 12119 ft | 270 kts | 224° |
| 2026-05-05 19:09 | 33.31953 | -7.86791 | 12297 ft | 292 kts | 222° |
| 2026-05-05 19:10 | 33.30314 | -7.88378 | 12473 ft | 313 kts | 221° |
| 2026-05-05 19:10 | 33.28563 | -7.90072 | 12636 ft | 333 kts | 222° |
| 2026-05-05 19:10 | 33.26727 | -7.91863 | 12943 ft | 347 kts | 222° |
| 2026-05-05 19:10 | 33.24848 | -7.93708 | 13548 ft | 351 kts | 222° |
| 2026-05-05 19:11 | 33.22962 | -7.95569 | 14244 ft | 351 kts | 223° |
| 2026-05-05 19:11 | 33.21102 | -7.97412 | 14829 ft | 354 kts | 223° |
| 2026-05-05 19:11 | 33.19172 | -7.99327 | 15393 ft | 358 kts | 223° |
| 2026-05-05 19:11 | 33.17244 | -8.01240 | 15971 ft | 361 kts | 223° |
| 2026-05-05 19:12 | 33.15331 | -8.03137 | 16526 ft | 365 kts | 222° |
| 2026-05-05 19:12 | 33.13146 | -8.04728 | 17052 ft | 375 kts | 206° |
| 2026-05-05 19:12 | 33.10589 | -8.05514 | 17594 ft | 387 kts | 191° |
| 2026-05-05 19:12 | 33.07876 | -8.05722 | 18131 ft | 393 kts | 187° |
| 2026-05-05 19:13 | 33.05124 | -8.05846 | 18600 ft | 398 kts | 187° |
| 2026-05-05 19:13 | 33.02351 | -8.05967 | 19087 ft | 400 kts | 187° |
| 2026-05-05 19:13 | 32.99565 | -8.06113 | 19602 ft | 402 kts | 188° |
| 2026-05-05 19:13 | 32.96772 | -8.06281 | 20078 ft | 404 kts | 188° |
| 2026-05-05 19:14 | 32.93954 | -8.06459 | 20548 ft | 407 kts | 188° |
| 2026-05-05 19:14 | 32.91130 | -8.06750 | 20993 ft | 407 kts | 192° |
| 2026-05-05 19:14 | 32.88316 | -8.07206 | 21444 ft | 409 kts | 193° |
| 2026-05-05 19:14 | 32.85498 | -8.07714 | 21891 ft | 411 kts | 194° |
| 2026-05-05 19:15 | 32.82664 | -8.08220 | 22339 ft | 413 kts | 193° |
| 2026-05-05 19:15 | 32.79809 | -8.08710 | 22774 ft | 416 kts | 193° |
| 2026-05-05 19:15 | 32.76938 | -8.09185 | 23203 ft | 418 kts | 193° |
| 2026-05-05 19:15 | 32.74045 | -8.09655 | 23627 ft | 421 kts | 193° |
| 2026-05-05 19:16 | 32.71136 | -8.10126 | 23994 ft | 422 kts | 193° |
| 2026-05-05 19:16 | 32.68228 | -8.10600 | 24397 ft | 423 kts | 194° |
| 2026-05-05 19:16 | 32.65314 | -8.11077 | 24803 ft | 423 kts | 194° |
| 2026-05-05 19:16 | 32.62399 | -8.11555 | 25203 ft | 423 kts | 194° |
| 2026-05-05 19:17 | 32.59477 | -8.12034 | 25566 ft | 424 kts | 194° |
| 2026-05-05 19:17 | 32.56551 | -8.12514 | 25934 ft | 425 kts | 195° |
| 2026-05-05 19:17 | 32.53614 | -8.12995 | 26305 ft | 425 kts | 195° |
| 2026-05-05 19:17 | 32.50687 | -8.13472 | 26642 ft | 426 kts | 195° |
| 2026-05-05 19:18 | 32.47748 | -8.13951 | 26902 ft | 427 kts | 195° |
| 2026-05-05 19:18 | 32.44838 | -8.14426 | 27294 ft | 427 kts | 196° |
| 2026-05-05 19:18 | 32.41863 | -8.14911 | 27695 ft | 426 kts | 196° |
| 2026-05-05 19:18 | 32.38925 | -8.15390 | 28032 ft | 426 kts | 197° |
| 2026-05-05 19:19 | 32.36020 | -8.15864 | 28344 ft | 427 kts | 197° |
| 2026-05-05 19:19 | 32.33083 | -8.16342 | 28683 ft | 427 kts | 197° |
| 2026-05-05 19:19 | 32.30143 | -8.16819 | 29154 ft | 424 kts | 198° |
| 2026-05-05 19:19 | 32.27248 | -8.17285 | 29752 ft | 417 kts | 198° |
| 2026-05-05 19:20 | 32.24395 | -8.17745 | 30330 ft | 411 kts | 199° |
| 2026-05-05 19:20 | 32.21572 | -8.18203 | 30722 ft | 408 kts | 199° |
| 2026-05-05 19:20 | 32.18751 | -8.18666 | 30954 ft | 409 kts | 199° |
| 2026-05-05 19:20 | 32.15926 | -8.19129 | 31174 ft | 410 kts | 199° |
| 2026-05-05 19:21 | 32.13106 | -8.19586 | 31490 ft | 409 kts | 199° |
| 2026-05-05 19:21 | 32.10308 | -8.20075 | 31841 ft | 404 kts | 201° |
| 2026-05-05 19:21 | 32.07549 | -8.20657 | 32142 ft | 401 kts | 202° |
| 2026-05-05 19:21 | 32.04817 | -8.21279 | 32392 ft | 400 kts | 202° |
| 2026-05-05 19:22 | 32.02086 | -8.21913 | 32666 ft | 400 kts | 202° |
| 2026-05-05 19:22 | 31.99362 | -8.22542 | 32971 ft | 398 kts | 202° |
| 2026-05-05 19:22 | 31.96645 | -8.23162 | 33265 ft | 397 kts | 202° |
| 2026-05-05 19:22 | 31.93935 | -8.23774 | 33522 ft | 396 kts | 202° |
| 2026-05-05 19:23 | 31.91226 | -8.24380 | 33789 ft | 396 kts | 202° |
| 2026-05-05 19:23 | 31.88523 | -8.24982 | 34002 ft | 396 kts | 202° |
| 2026-05-05 19:23 | 31.85813 | -8.25583 | 34188 ft | 396 kts | 202° |
| 2026-05-05 19:23 | 31.83107 | -8.26183 | 34365 ft | 397 kts | 202° |
| 2026-05-05 19:24 | 31.80394 | -8.26783 | 34535 ft | 397 kts | 202° |
| 2026-05-05 19:24 | 31.77677 | -8.27382 | 34708 ft | 397 kts | 202° |
| 2026-05-05 19:24 | 31.74960 | -8.27980 | 34890 ft | 397 kts | 202° |
| 2026-05-05 19:24 | 31.72233 | -8.28582 | 34962 ft | 400 kts | 202° |
| 2026-05-05 19:25 | 31.66756 | -8.29788 | 34959 ft | 400 kts | 202° |
| 2026-05-05 19:25 | 31.61321 | -8.30976 | 34963 ft | 395 kts | 203° |
| 2026-05-05 19:26 | 31.55967 | -8.32148 | 34964 ft | 392 kts | 203° |
| 2026-05-05 19:26 | 31.50614 | -8.33322 | 34973 ft | 391 kts | 203° |
| 2026-05-05 19:27 | 31.45263 | -8.34499 | 34980 ft | 394 kts | 203° |
| 2026-05-05 19:27 | 31.39817 | -8.35701 | 34994 ft | 401 kts | 202° |
| 2026-05-05 19:28 | 31.34312 | -8.36904 | 34991 ft | 404 kts | 202° |
| 2026-05-05 19:28 | 31.28772 | -8.38109 | 34993 ft | 405 kts | 202° |
| 2026-05-05 19:29 | 31.23237 | -8.39312 | 34996 ft | 405 kts | 202° |
| 2026-05-05 19:29 | 31.17723 | -8.40508 | 35016 ft | 402 kts | 202° |
| 2026-05-05 19:30 | 31.12212 | -8.41707 | 35019 ft | 402 kts | 202° |
| 2026-05-05 19:30 | 31.06707 | -8.42903 | 35036 ft | 403 kts | 202° |
| 2026-05-05 19:31 | 31.01179 | -8.44105 | 34996 ft | 404 kts | 202° |
| 2026-05-05 19:31 | 30.95658 | -8.45298 | 34997 ft | 403 kts | 202° |
| 2026-05-05 19:32 | 30.90149 | -8.46488 | 34972 ft | 400 kts | 202° |
| 2026-05-05 19:32 | 30.84696 | -8.47665 | 34997 ft | 398 kts | 202° |
| 2026-05-05 19:33 | 30.79264 | -8.48835 | 34969 ft | 394 kts | 202° |
| 2026-05-05 19:33 | 30.73928 | -8.49981 | 34963 ft | 391 kts | 202° |
| 2026-05-05 19:34 | 30.68564 | -8.51145 | 34963 ft | 395 kts | 202° |
| 2026-05-05 19:35 | 30.60364 | -8.52922 | 34951 ft | 403 kts | 202° |
| 2026-05-05 19:35 | 30.54834 | -8.54109 | 34952 ft | 405 kts | 202° |
| 2026-05-05 19:36 | 30.49283 | -8.55297 | 34944 ft | 406 kts | 202° |
| 2026-05-05 19:36 | 30.43741 | -8.56480 | 34944 ft | 405 kts | 201° |
| 2026-05-05 19:37 | 30.38213 | -8.57659 | 34935 ft | 402 kts | 201° |
| 2026-05-05 19:37 | 30.32737 | -8.58828 | 34964 ft | 400 kts | 201° |
| 2026-05-05 19:38 | 30.27270 | -8.59999 | 34932 ft | 398 kts | 201° |
| 2026-05-05 19:38 | 30.21844 | -8.61151 | 34978 ft | 393 kts | 201° |
| 2026-05-05 19:39 | 30.16459 | -8.62299 | 34910 ft | 392 kts | 201° |
| 2026-05-05 19:39 | 30.11081 | -8.63451 | 34973 ft | 397 kts | 201° |
| 2026-05-05 19:40 | 30.05610 | -8.64622 | 34958 ft | 400 kts | 201° |
| 2026-05-05 19:40 | 30.00130 | -8.65784 | 34955 ft | 402 kts | 201° |
| 2026-05-05 19:41 | 29.94659 | -8.66943 | 34965 ft | 402 kts | 201° |
| 2026-05-05 19:41 | 29.89159 | -8.68106 | 34966 ft | 402 kts | 201° |
| 2026-05-05 19:42 | 29.83658 | -8.69270 | 34962 ft | 402 kts | 201° |
| 2026-05-05 19:42 | 29.78156 | -8.70433 | 34959 ft | 402 kts | 201° |
| 2026-05-05 19:43 | 29.72653 | -8.71595 | 34957 ft | 402 kts | 201° |
| 2026-05-05 19:43 | 29.67156 | -8.72755 | 34953 ft | 402 kts | 201° |
| 2026-05-05 19:44 | 29.61644 | -8.73918 | 34954 ft | 403 kts | 201° |
| 2026-05-05 19:44 | 29.56121 | -8.75081 | 34947 ft | 404 kts | 201° |
| 2026-05-05 19:45 | 29.50585 | -8.76244 | 34928 ft | 404 kts | 201° |
| 2026-05-05 19:45 | 29.45057 | -8.77404 | 34920 ft | 403 kts | 201° |
| 2026-05-05 19:46 | 29.40469 | -8.78366 | 34914 ft | 403 kts | 201° |
| 2026-05-05 19:46 | 29.34962 | -8.79520 | 34912 ft | 402 kts | 201° |
| 2026-05-05 19:47 | 29.29452 | -8.80674 | 34905 ft | 402 kts | 201° |
| 2026-05-05 19:47 | 29.23944 | -8.81827 | 34889 ft | 403 kts | 201° |
| 2026-05-05 19:48 | 29.18433 | -8.82978 | 34887 ft | 403 kts | 200° |
| 2026-05-05 19:48 | 29.12915 | -8.84130 | 34886 ft | 403 kts | 200° |
| 2026-05-05 19:49 | 29.07387 | -8.85283 | 34874 ft | 404 kts | 200° |
| 2026-05-05 19:49 | 29.01850 | -8.86436 | 34863 ft | 405 kts | 200° |
| 2026-05-05 19:50 | 28.96307 | -8.87589 | 34870 ft | 405 kts | 200° |
| 2026-05-05 19:50 | 28.90756 | -8.88742 | 34864 ft | 406 kts | 200° |
| 2026-05-05 19:51 | 28.85234 | -8.89888 | 34860 ft | 406 kts | 200° |
| 2026-05-05 19:51 | 28.79670 | -8.91042 | 34863 ft | 407 kts | 200° |
| 2026-05-05 19:52 | 28.74099 | -8.92195 | 34860 ft | 407 kts | 200° |
| 2026-05-05 19:52 | 28.68517 | -8.93350 | 34856 ft | 408 kts | 200° |
| 2026-05-05 19:53 | 28.62932 | -8.94504 | 34857 ft | 408 kts | 200° |
| 2026-05-05 19:53 | 28.57347 | -8.95657 | 34857 ft | 408 kts | 200° |
| 2026-05-05 19:54 | 28.51754 | -8.96810 | 34864 ft | 408 kts | 200° |
| 2026-05-05 19:54 | 28.46163 | -8.97961 | 34854 ft | 408 kts | 200° |
| 2026-05-05 19:55 | 28.40584 | -8.99109 | 34864 ft | 407 kts | 200° |
| 2026-05-05 19:55 | 28.35010 | -9.00254 | 34863 ft | 406 kts | 200° |
| 2026-05-05 19:56 | 28.29456 | -9.01395 | 34872 ft | 406 kts | 200° |
| 2026-05-05 19:56 | 28.23906 | -9.02533 | 34874 ft | 405 kts | 200° |
| 2026-05-05 19:57 | 28.18366 | -9.03669 | 34875 ft | 405 kts | 200° |
| 2026-05-05 19:57 | 28.12830 | -9.04802 | 34868 ft | 404 kts | 200° |
| 2026-05-05 19:58 | 28.07294 | -9.05934 | 34873 ft | 404 kts | 200° |
| 2026-05-05 19:58 | 28.01768 | -9.07063 | 34875 ft | 404 kts | 200° |
| 2026-05-05 19:59 | 27.96238 | -9.08192 | 34879 ft | 404 kts | 200° |
| 2026-05-05 19:59 | 27.90703 | -9.09320 | 34881 ft | 404 kts | 199° |
| 2026-05-05 20:00 | 27.85165 | -9.10448 | 34877 ft | 404 kts | 199° |
| 2026-05-05 20:00 | 27.79620 | -9.11576 | 34880 ft | 405 kts | 199° |
| 2026-05-05 20:01 | 27.74084 | -9.12701 | 34879 ft | 405 kts | 199° |
| 2026-05-05 20:01 | 27.68422 | -9.13251 | 34879 ft | 427 kts | 181° |
| 2026-05-05 20:01 | 27.65489 | -9.12441 | 34875 ft | 443 kts | 170° |
| 2026-05-05 20:02 | 27.62679 | -9.10841 | 34872 ft | 466 kts | 155° |
| 2026-05-05 20:02 | 27.57519 | -9.06304 | 34881 ft | 473 kts | 151° |
| 2026-05-05 20:03 | 27.52423 | -9.01605 | 34878 ft | 474 kts | 151° |
| 2026-05-05 20:03 | 27.47289 | -8.96950 | 34877 ft | 474 kts | 152° |
| 2026-05-05 20:04 | 27.42125 | -8.92346 | 34879 ft | 474 kts | 152° |
| 2026-05-05 20:04 | 27.36981 | -8.87792 | 34879 ft | 474 kts | 152° |
| 2026-05-05 20:05 | 27.31792 | -8.83205 | 34883 ft | 474 kts | 152° |
| 2026-05-05 20:05 | 27.26606 | -8.78624 | 34885 ft | 474 kts | 152° |
| 2026-05-05 20:06 | 27.21412 | -8.74038 | 34885 ft | 474 kts | 152° |
| 2026-05-05 20:06 | 27.16219 | -8.69459 | 34885 ft | 474 kts | 152° |
| 2026-05-05 20:07 | 27.11031 | -8.64889 | 34887 ft | 474 kts | 152° |
| 2026-05-05 20:07 | 27.05836 | -8.60320 | 34890 ft | 474 kts | 152° |
| 2026-05-05 20:08 | 27.00633 | -8.55749 | 34890 ft | 475 kts | 152° |
| 2026-05-05 20:08 | 26.95437 | -8.51190 | 34894 ft | 475 kts | 152° |
| 2026-05-05 20:09 | 26.90227 | -8.46624 | 34892 ft | 475 kts | 151° |
| 2026-05-05 20:09 | 26.85017 | -8.42063 | 34895 ft | 476 kts | 151° |
| 2026-05-05 20:10 | 26.79803 | -8.37504 | 34892 ft | 476 kts | 151° |
| 2026-05-05 20:10 | 26.74579 | -8.32943 | 34889 ft | 476 kts | 151° |
| 2026-05-05 20:11 | 26.69354 | -8.28385 | 34888 ft | 476 kts | 151° |
| 2026-05-05 20:11 | 26.64122 | -8.23827 | 34886 ft | 477 kts | 151° |
| 2026-05-05 20:12 | 26.58917 | -8.19298 | 34883 ft | 477 kts | 151° |
| 2026-05-05 20:12 | 26.53679 | -8.14746 | 34880 ft | 478 kts | 151° |
| 2026-05-05 20:13 | 26.48422 | -8.10182 | 34883 ft | 478 kts | 151° |
| 2026-05-05 20:13 | 26.43164 | -8.05624 | 34881 ft | 479 kts | 151° |
| 2026-05-05 20:14 | 26.37892 | -8.01058 | 34892 ft | 480 kts | 152° |
| 2026-05-05 20:14 | 26.32605 | -7.96485 | 34880 ft | 481 kts | 152° |
| 2026-05-05 20:15 | 26.27309 | -7.91909 | 34876 ft | 482 kts | 152° |
| 2026-05-05 20:15 | 26.22001 | -7.87329 | 34876 ft | 483 kts | 152° |
| 2026-05-05 20:16 | 26.16678 | -7.82741 | 34878 ft | 484 kts | 152° |
| 2026-05-05 20:16 | 26.11345 | -7.78149 | 34879 ft | 485 kts | 152° |
| 2026-05-05 20:17 | 26.05996 | -7.73550 | 34879 ft | 486 kts | 152° |
| 2026-05-05 20:17 | 26.00676 | -7.68980 | 34877 ft | 487 kts | 152° |
| 2026-05-05 20:18 | 25.95314 | -7.64379 | 34877 ft | 487 kts | 152° |
| 2026-05-05 20:18 | 25.89953 | -7.59786 | 34879 ft | 487 kts | 152° |
| 2026-05-05 20:19 | 25.84584 | -7.55190 | 34874 ft | 487 kts | 152° |
| 2026-05-05 20:19 | 25.79219 | -7.50603 | 34872 ft | 486 kts | 152° |
| 2026-05-05 20:20 | 25.73862 | -7.46028 | 34869 ft | 486 kts | 152° |
| 2026-05-05 20:20 | 25.68504 | -7.41459 | 34867 ft | 485 kts | 152° |
| 2026-05-05 20:21 | 25.63159 | -7.36904 | 34869 ft | 485 kts | 151° |
| 2026-05-05 20:21 | 25.57808 | -7.32350 | 34872 ft | 485 kts | 151° |
| 2026-05-05 20:22 | 25.52461 | -7.27805 | 34872 ft | 484 kts | 151° |
| 2026-05-05 20:22 | 25.47115 | -7.23266 | 34871 ft | 484 kts | 151° |
| 2026-05-05 20:23 | 25.41769 | -7.18729 | 34872 ft | 484 kts | 151° |
| 2026-05-05 20:23 | 25.36415 | -7.14190 | 34866 ft | 485 kts | 151° |
| 2026-05-05 20:24 | 25.31102 | -7.09690 | 34869 ft | 485 kts | 151° |
| 2026-05-05 20:24 | 25.25702 | -7.05121 | 34866 ft | 485 kts | 151° |
| 2026-05-05 20:25 | 25.20375 | -7.00619 | 34868 ft | 486 kts | 151° |
| 2026-05-05 20:25 | 25.15005 | -6.96087 | 34864 ft | 486 kts | 151° |
| 2026-05-05 20:26 | 25.09626 | -6.91552 | 34864 ft | 486 kts | 151° |
| 2026-05-05 20:26 | 25.04244 | -6.87020 | 34867 ft | 487 kts | 151° |
| 2026-05-05 20:27 | 24.98866 | -6.82497 | 34863 ft | 487 kts | 151° |
| 2026-05-05 20:27 | 24.93467 | -6.77960 | 34860 ft | 487 kts | 151° |
| 2026-05-05 20:28 | 24.88073 | -6.73433 | 34861 ft | 488 kts | 151° |
| 2026-05-05 20:28 | 24.82683 | -6.68915 | 34867 ft | 488 kts | 151° |
| 2026-05-05 20:29 | 24.77281 | -6.64390 | 34867 ft | 488 kts | 151° |
| 2026-05-05 20:29 | 24.71873 | -6.59867 | 34869 ft | 488 kts | 151° |
| 2026-05-05 20:30 | 24.66455 | -6.55340 | 34867 ft | 489 kts | 151° |
| 2026-05-05 20:30 | 24.61039 | -6.50820 | 34867 ft | 489 kts | 151° |
| 2026-05-05 20:31 | 24.55650 | -6.46328 | 34865 ft | 490 kts | 151° |
| 2026-05-05 20:31 | 24.50223 | -6.41808 | 34867 ft | 490 kts | 151° |
| 2026-05-05 20:32 | 24.44785 | -6.37284 | 34868 ft | 490 kts | 151° |
| 2026-05-05 20:32 | 24.39345 | -6.32763 | 34867 ft | 491 kts | 152° |
| 2026-05-05 20:33 | 24.33904 | -6.28247 | 34869 ft | 491 kts | 152° |
| 2026-05-05 20:33 | 24.28454 | -6.23728 | 34868 ft | 491 kts | 152° |
| 2026-05-05 20:34 | 24.23004 | -6.19212 | 34863 ft | 491 kts | 152° |
| 2026-05-05 20:34 | 24.17555 | -6.14704 | 34863 ft | 491 kts | 152° |
| 2026-05-05 20:35 | 24.12110 | -6.10211 | 34863 ft | 490 kts | 152° |
| 2026-05-05 20:35 | 24.06665 | -6.05724 | 34870 ft | 490 kts | 152° |
| 2026-05-05 20:36 | 24.02103 | -6.01966 | 34868 ft | 490 kts | 152° |
| 2026-05-05 20:36 | 23.96695 | -5.97516 | 34868 ft | 489 kts | 152° |
| 2026-05-05 20:37 | 23.91254 | -5.93042 | 34868 ft | 489 kts | 152° |
| 2026-05-05 20:37 | 23.85814 | -5.88574 | 34865 ft | 489 kts | 152° |
| 2026-05-05 20:38 | 23.80370 | -5.84107 | 34862 ft | 489 kts | 152° |
| 2026-05-05 20:38 | 23.74930 | -5.79649 | 34868 ft | 489 kts | 152° |
| 2026-05-05 20:39 | 23.69478 | -5.75186 | 34866 ft | 489 kts | 152° |
| 2026-05-05 20:39 | 23.64030 | -5.70730 | 34873 ft | 489 kts | 152° |
| 2026-05-05 20:40 | 23.58585 | -5.66282 | 34874 ft | 490 kts | 152° |
| 2026-05-05 20:40 | 23.53131 | -5.61832 | 34872 ft | 490 kts | 152° |
| 2026-05-05 20:41 | 23.47677 | -5.57386 | 34866 ft | 490 kts | 151° |
| 2026-05-05 20:41 | 23.42216 | -5.52939 | 34871 ft | 490 kts | 151° |
| 2026-05-05 20:42 | 23.36754 | -5.48496 | 34871 ft | 490 kts | 151° |
| 2026-05-05 20:42 | 23.31284 | -5.44051 | 34871 ft | 491 kts | 151° |
| 2026-05-05 20:43 | 23.25813 | -5.39610 | 34867 ft | 491 kts | 151° |
| 2026-05-05 20:43 | 23.20332 | -5.35165 | 34869 ft | 492 kts | 151° |
| 2026-05-05 20:44 | 23.14840 | -5.30716 | 34868 ft | 492 kts | 151° |
| 2026-05-05 20:44 | 23.09383 | -5.26300 | 34868 ft | 492 kts | 151° |
| 2026-05-05 20:45 | 23.01143 | -5.19641 | 34865 ft | 493 kts | 151° |
| 2026-05-05 20:45 | 22.95640 | -5.15199 | 34862 ft | 493 kts | 151° |
| 2026-05-05 20:46 | 22.90133 | -5.10759 | 34870 ft | 493 kts | 151° |
| 2026-05-05 20:46 | 22.84586 | -5.06292 | 34866 ft | 494 kts | 151° |
| 2026-05-05 20:47 | 22.79102 | -5.01879 | 34867 ft | 494 kts | 151° |
| 2026-05-05 20:47 | 22.73587 | -4.97446 | 34862 ft | 494 kts | 151° |
| 2026-05-05 20:48 | 22.68071 | -4.93016 | 34870 ft | 494 kts | 151° |
| 2026-05-05 20:48 | 22.62559 | -4.88594 | 34864 ft | 493 kts | 151° |
| 2026-05-05 20:49 | 22.57047 | -4.84177 | 34864 ft | 493 kts | 151° |
| 2026-05-05 20:49 | 22.51540 | -4.79769 | 34860 ft | 492 kts | 151° |
| 2026-05-05 20:50 | 22.46035 | -4.75366 | 34861 ft | 492 kts | 151° |
| 2026-05-05 20:50 | 22.40538 | -4.70975 | 34859 ft | 491 kts | 151° |
| 2026-05-05 20:51 | 22.35051 | -4.66596 | 34854 ft | 490 kts | 151° |
| 2026-05-05 20:51 | 22.29563 | -4.62220 | 34858 ft | 490 kts | 151° |
| 2026-05-05 20:52 | 22.24076 | -4.57851 | 34857 ft | 490 kts | 151° |
| 2026-05-05 20:52 | 22.18582 | -4.53480 | 34858 ft | 490 kts | 151° |
| 2026-05-05 20:53 | 22.13093 | -4.49117 | 34861 ft | 491 kts | 151° |
| 2026-05-05 20:53 | 22.07592 | -4.44749 | 34863 ft | 491 kts | 151° |
| 2026-05-05 20:54 | 22.02085 | -4.40379 | 34862 ft | 492 kts | 151° |
| 2026-05-05 20:54 | 21.96603 | -4.36035 | 34867 ft | 493 kts | 151° |
| 2026-05-05 20:55 | 21.91043 | -4.31632 | 34869 ft | 493 kts | 151° |
| 2026-05-05 20:55 | 21.85542 | -4.27282 | 34864 ft | 494 kts | 151° |
| 2026-05-05 20:56 | 21.79994 | -4.22897 | 34869 ft | 495 kts | 151° |
| 2026-05-05 20:56 | 21.74442 | -4.18514 | 34866 ft | 495 kts | 151° |
| 2026-05-05 20:57 | 21.68881 | -4.14128 | 34867 ft | 496 kts | 151° |
| 2026-05-05 20:57 | 21.63317 | -4.09743 | 34868 ft | 496 kts | 150° |
| 2026-05-05 20:58 | 21.57751 | -4.05362 | 34867 ft | 496 kts | 150° |
| 2026-05-05 20:58 | 21.52180 | -4.00980 | 34870 ft | 496 kts | 150° |
| 2026-05-05 20:59 | 21.46612 | -3.96605 | 34865 ft | 496 kts | 150° |
| 2026-05-05 20:59 | 21.41034 | -3.92226 | 34866 ft | 496 kts | 150° |
| 2026-05-05 21:00 | 21.35466 | -3.87859 | 34866 ft | 496 kts | 150° |
| 2026-05-05 21:00 | 21.29889 | -3.83493 | 34864 ft | 496 kts | 150° |
| 2026-05-05 21:01 | 21.24317 | -3.79136 | 34867 ft | 496 kts | 150° |
| 2026-05-05 21:01 | 21.18746 | -3.74783 | 34862 ft | 496 kts | 150° |
| 2026-05-05 21:02 | 21.13211 | -3.70459 | 34868 ft | 495 kts | 150° |
| 2026-05-05 21:02 | 21.07604 | -3.66085 | 34871 ft | 496 kts | 150° |
| 2026-05-05 21:03 | 21.02066 | -3.61767 | 34868 ft | 496 kts | 150° |
| 2026-05-05 21:03 | 20.96448 | -3.57392 | 34867 ft | 496 kts | 150° |
| 2026-05-05 21:04 | 20.90904 | -3.53078 | 34864 ft | 496 kts | 150° |
| 2026-05-05 21:04 | 20.85321 | -3.48739 | 34866 ft | 496 kts | 150° |
| 2026-05-05 21:05 | 20.79734 | -3.44399 | 34865 ft | 497 kts | 150° |
| 2026-05-05 21:05 | 20.74138 | -3.40057 | 34866 ft | 497 kts | 150° |
| 2026-05-05 21:06 | 20.68545 | -3.35721 | 34865 ft | 497 kts | 150° |
| 2026-05-05 21:06 | 20.62951 | -3.31389 | 34864 ft | 497 kts | 150° |
| 2026-05-05 21:07 | 20.57354 | -3.27059 | 34861 ft | 497 kts | 150° |
| 2026-05-05 21:07 | 20.51745 | -3.22723 | 34861 ft | 497 kts | 150° |
| 2026-05-05 21:08 | 20.46143 | -3.18398 | 34859 ft | 498 kts | 150° |
| 2026-05-05 21:08 | 20.40533 | -3.14069 | 34864 ft | 498 kts | 150° |
| 2026-05-05 21:09 | 20.34914 | -3.09737 | 34861 ft | 499 kts | 150° |
| 2026-05-05 21:09 | 20.29320 | -3.05429 | 34856 ft | 499 kts | 150° |
| 2026-05-05 21:10 | 20.23689 | -3.01097 | 34869 ft | 500 kts | 150° |
| 2026-05-05 21:10 | 20.18044 | -2.96757 | 34852 ft | 501 kts | 150° |
| 2026-05-05 21:11 | 20.12391 | -2.92416 | 34860 ft | 501 kts | 150° |
| 2026-05-05 21:11 | 20.06728 | -2.88070 | 34861 ft | 502 kts | 150° |
| 2026-05-05 21:12 | 20.01058 | -2.83722 | 34854 ft | 502 kts | 150° |
| 2026-05-05 21:12 | 19.95384 | -2.79377 | 34850 ft | 503 kts | 150° |
| 2026-05-05 21:13 | 19.89710 | -2.75034 | 34861 ft | 503 kts | 150° |
| 2026-05-05 21:13 | 19.84038 | -2.70697 | 34854 ft | 503 kts | 150° |
| 2026-05-05 21:14 | 19.78362 | -2.66361 | 34859 ft | 503 kts | 150° |
| 2026-05-05 21:14 | 19.72688 | -2.62031 | 34858 ft | 502 kts | 150° |
| 2026-05-05 21:15 | 19.67010 | -2.57701 | 34848 ft | 502 kts | 150° |
| 2026-05-05 21:15 | 19.61329 | -2.53373 | 34859 ft | 502 kts | 150° |
| 2026-05-05 21:16 | 19.55656 | -2.49055 | 34851 ft | 502 kts | 150° |
| 2026-05-05 21:16 | 19.49982 | -2.44740 | 34857 ft | 502 kts | 150° |
| 2026-05-05 21:17 | 19.44299 | -2.40422 | 34856 ft | 502 kts | 150° |
| 2026-05-05 21:17 | 19.38663 | -2.36143 | 34854 ft | 502 kts | 150° |
| 2026-05-05 21:18 | 19.32985 | -2.31836 | 34852 ft | 502 kts | 150° |
| 2026-05-05 21:18 | 19.27311 | -2.27536 | 34844 ft | 502 kts | 150° |
| 2026-05-05 21:19 | 19.21632 | -2.23236 | 34844 ft | 501 kts | 150° |
| 2026-05-05 21:19 | 19.15969 | -2.18951 | 34846 ft | 501 kts | 150° |
| 2026-05-05 21:20 | 19.10300 | -2.14667 | 34845 ft | 501 kts | 150° |
| 2026-05-05 21:20 | 19.04630 | -2.10384 | 34846 ft | 501 kts | 150° |
| 2026-05-05 21:21 | 18.98957 | -2.06104 | 34846 ft | 501 kts | 150° |
| 2026-05-05 21:21 | 18.93290 | -2.01831 | 34843 ft | 501 kts | 149° |
| 2026-05-05 21:22 | 18.87620 | -1.97560 | 34842 ft | 501 kts | 149° |
| 2026-05-05 21:22 | 18.81948 | -1.93290 | 34839 ft | 501 kts | 149° |
| 2026-05-05 21:23 | 18.76304 | -1.89045 | 34841 ft | 501 kts | 149° |
| 2026-05-05 21:23 | 18.71550 | -1.85473 | 34839 ft | 501 kts | 149° |
| 2026-05-05 21:24 | 18.65870 | -1.81207 | 34839 ft | 501 kts | 149° |
| 2026-05-05 21:24 | 18.60197 | -1.76949 | 34840 ft | 501 kts | 149° |
| 2026-05-05 21:25 | 18.54514 | -1.72690 | 34841 ft | 501 kts | 149° |
| 2026-05-05 21:25 | 18.48828 | -1.68439 | 34837 ft | 501 kts | 149° |
| 2026-05-05 21:26 | 18.43137 | -1.64186 | 34840 ft | 501 kts | 149° |
| 2026-05-05 21:26 | 18.37455 | -1.59942 | 34841 ft | 501 kts | 149° |
| 2026-05-05 21:27 | 18.31761 | -1.55692 | 34838 ft | 501 kts | 149° |
| 2026-05-05 21:27 | 18.26075 | -1.51451 | 34831 ft | 501 kts | 149° |
| 2026-05-05 21:28 | 18.20388 | -1.47212 | 34834 ft | 501 kts | 149° |
| 2026-05-05 21:28 | 18.14695 | -1.42973 | 34844 ft | 501 kts | 149° |
| 2026-05-05 21:29 | 18.09036 | -1.38764 | 34839 ft | 501 kts | 149° |
| 2026-05-05 21:29 | 18.03307 | -1.34507 | 34820 ft | 501 kts | 149° |
| 2026-05-05 21:30 | 17.97612 | -1.30276 | 34826 ft | 501 kts | 149° |
| 2026-05-05 21:30 | 17.91951 | -1.26074 | 34824 ft | 502 kts | 149° |
| 2026-05-05 21:31 | 17.86254 | -1.21847 | 34825 ft | 502 kts | 149° |
| 2026-05-05 21:31 | 17.80547 | -1.17618 | 34819 ft | 502 kts | 149° |
| 2026-05-05 21:32 | 17.74853 | -1.13400 | 34823 ft | 502 kts | 149° |
| 2026-05-05 21:32 | 17.69147 | -1.09177 | 34824 ft | 502 kts | 149° |
| 2026-05-05 21:33 | 17.63446 | -1.04963 | 34821 ft | 502 kts | 149° |
| 2026-05-05 21:33 | 17.57739 | -1.00745 | 34820 ft | 502 kts | 149° |
| 2026-05-05 21:34 | 17.52231 | -0.96679 | 34816 ft | 502 kts | 149° |
| 2026-05-05 21:34 | 17.46525 | -0.92470 | 34814 ft | 502 kts | 149° |
| 2026-05-05 21:35 | 17.40821 | -0.88265 | 34813 ft | 501 kts | 149° |
| 2026-05-05 21:35 | 17.35115 | -0.84062 | 34809 ft | 501 kts | 149° |
| 2026-05-05 21:36 | 17.29409 | -0.79863 | 34811 ft | 501 kts | 149° |
| 2026-05-05 21:36 | 17.23709 | -0.75670 | 34812 ft | 501 kts | 149° |
| 2026-05-05 21:37 | 17.18007 | -0.71480 | 34807 ft | 501 kts | 149° |
| 2026-05-05 21:37 | 17.12308 | -0.67296 | 34806 ft | 501 kts | 149° |
| 2026-05-05 21:38 | 17.06607 | -0.63113 | 34804 ft | 500 kts | 149° |
| 2026-05-05 21:38 | 17.00913 | -0.58938 | 34801 ft | 500 kts | 149° |
| 2026-05-05 21:39 | 16.95212 | -0.54761 | 34799 ft | 500 kts | 149° |
| 2026-05-05 21:39 | 16.89515 | -0.50591 | 34800 ft | 500 kts | 149° |
| 2026-05-05 21:40 | 16.83859 | -0.46453 | 34797 ft | 500 kts | 149° |
| 2026-05-05 21:40 | 16.78123 | -0.42260 | 34797 ft | 500 kts | 149° |
| 2026-05-05 21:41 | 16.72431 | -0.38103 | 34799 ft | 499 kts | 149° |
| 2026-05-05 21:41 | 16.66742 | -0.33950 | 34795 ft | 499 kts | 149° |
| 2026-05-05 21:42 | 16.61052 | -0.29800 | 34795 ft | 499 kts | 149° |
| 2026-05-05 21:42 | 16.55369 | -0.25658 | 34798 ft | 499 kts | 149° |
| 2026-05-05 21:43 | 16.49719 | -0.21543 | 34799 ft | 499 kts | 149° |
| 2026-05-05 21:43 | 16.44034 | -0.17405 | 34795 ft | 498 kts | 149° |
| 2026-05-05 21:44 | 16.38353 | -0.13273 | 34794 ft | 498 kts | 149° |
| 2026-05-05 21:44 | 16.32673 | -0.09145 | 34792 ft | 498 kts | 149° |
| 2026-05-05 21:45 | 16.26991 | -0.05017 | 34787 ft | 498 kts | 149° |
| 2026-05-05 21:45 | 16.21364 | -0.00819 | 34784 ft | 499 kts | 146° |
| 2026-05-05 21:46 | 16.15922 | 0.03681 | 34788 ft | 500 kts | 144° |
| 2026-05-05 21:46 | 16.10517 | 0.08220 | 34783 ft | 500 kts | 145° |
| 2026-05-05 21:47 | 16.05077 | 0.12724 | 34781 ft | 499 kts | 145° |
| 2026-05-05 21:47 | 15.99627 | 0.17204 | 34783 ft | 499 kts | 145° |
| 2026-05-05 21:48 | 15.94179 | 0.21678 | 34782 ft | 500 kts | 145° |
| 2026-05-05 21:48 | 15.88723 | 0.26160 | 34780 ft | 500 kts | 145° |
| 2026-05-05 21:49 | 15.83270 | 0.30637 | 34781 ft | 500 kts | 145° |
| 2026-05-05 21:49 | 15.77823 | 0.35115 | 34780 ft | 500 kts | 145° |
| 2026-05-05 21:50 | 15.72372 | 0.39599 | 34780 ft | 500 kts | 145° |
| 2026-05-05 21:50 | 15.66929 | 0.44072 | 34782 ft | 499 kts | 145° |
| 2026-05-05 21:51 | 15.61473 | 0.48552 | 34780 ft | 499 kts | 145° |
| 2026-05-05 21:51 | 15.56029 | 0.53019 | 34781 ft | 499 kts | 145° |
| 2026-05-05 21:52 | 15.47850 | 0.59727 | 34782 ft | 499 kts | 145° |
| 2026-05-05 21:53 | 15.42401 | 0.64185 | 34779 ft | 499 kts | 145° |
| 2026-05-05 21:53 | 15.36941 | 0.68629 | 34783 ft | 499 kts | 145° |
| 2026-05-05 21:54 | 15.31475 | 0.73074 | 34777 ft | 499 kts | 145° |
| 2026-05-05 21:54 | 15.26015 | 0.77514 | 34780 ft | 499 kts | 145° |
| 2026-05-05 21:55 | 15.20588 | 0.81927 | 34781 ft | 499 kts | 145° |
| 2026-05-05 21:55 | 15.15089 | 0.86394 | 34777 ft | 499 kts | 145° |
| 2026-05-05 21:56 | 15.09634 | 0.90824 | 34778 ft | 499 kts | 145° |
| 2026-05-05 21:56 | 15.04166 | 0.95261 | 34776 ft | 499 kts | 145° |
| 2026-05-05 21:57 | 14.98744 | 0.99657 | 34788 ft | 498 kts | 145° |
| 2026-05-05 21:57 | 14.93287 | 1.04079 | 34786 ft | 498 kts | 145° |
| 2026-05-05 21:58 | 14.87831 | 1.08498 | 34783 ft | 498 kts | 145° |
| 2026-05-05 21:58 | 14.82375 | 1.12913 | 34787 ft | 498 kts | 145° |
| 2026-05-05 21:59 | 14.76919 | 1.17325 | 34788 ft | 498 kts | 145° |
| 2026-05-05 21:59 | 14.71473 | 1.21727 | 34785 ft | 498 kts | 145° |
| 2026-05-05 22:00 | 14.66017 | 1.26133 | 34791 ft | 497 kts | 145° |
| 2026-05-05 22:00 | 14.60569 | 1.30530 | 34790 ft | 497 kts | 145° |
| 2026-05-05 22:01 | 14.55120 | 1.34926 | 34796 ft | 497 kts | 145° |
| 2026-05-05 22:01 | 14.49665 | 1.39323 | 34791 ft | 497 kts | 145° |
| 2026-05-05 22:02 | 14.44221 | 1.43709 | 34793 ft | 497 kts | 145° |
| 2026-05-05 22:02 | 14.38767 | 1.48099 | 34808 ft | 497 kts | 145° |
| 2026-05-05 22:03 | 14.33308 | 1.52491 | 34800 ft | 498 kts | 145° |
| 2026-05-05 22:03 | 14.27847 | 1.56882 | 34798 ft | 498 kts | 144° |
| 2026-05-05 22:04 | 14.22382 | 1.61273 | 34796 ft | 498 kts | 144° |
| 2026-05-05 22:04 | 14.16955 | 1.65632 | 34801 ft | 498 kts | 144° |
| 2026-05-05 22:05 | 14.11496 | 1.70013 | 34800 ft | 498 kts | 144° |
| 2026-05-05 22:05 | 14.05998 | 1.74422 | 34801 ft | 497 kts | 144° |
| 2026-05-05 22:06 | 14.00584 | 1.78762 | 34801 ft | 497 kts | 144° |
| 2026-05-05 22:06 | 13.95136 | 1.83126 | 34803 ft | 496 kts | 144° |
| 2026-05-05 22:07 | 13.89686 | 1.87490 | 34803 ft | 496 kts | 144° |
| 2026-05-05 22:07 | 13.84249 | 1.91839 | 34805 ft | 495 kts | 144° |
| 2026-05-05 22:08 | 13.78812 | 1.96187 | 34805 ft | 495 kts | 144° |
| 2026-05-05 22:08 | 13.73378 | 2.00529 | 34812 ft | 494 kts | 144° |
| 2026-05-05 22:09 | 13.67954 | 2.04861 | 34823 ft | 494 kts | 144° |
| 2026-05-05 22:09 | 13.62521 | 2.09199 | 34823 ft | 494 kts | 144° |
| 2026-05-05 22:10 | 13.57103 | 2.13521 | 34831 ft | 494 kts | 144° |
| 2026-05-05 22:10 | 13.52592 | 2.17118 | 34827 ft | 493 kts | 144° |
| 2026-05-05 22:11 | 13.47359 | 2.21697 | 34821 ft | 496 kts | 134° |
| 2026-05-05 22:11 | 13.43166 | 2.27316 | 34830 ft | 497 kts | 127° |
| 2026-05-05 22:12 | 13.39138 | 2.33079 | 34831 ft | 497 kts | 127° |
| 2026-05-05 22:12 | 13.35074 | 2.38823 | 34823 ft | 496 kts | 127° |
| 2026-05-05 22:13 | 13.30985 | 2.44525 | 34827 ft | 496 kts | 127° |
| 2026-05-05 22:13 | 13.26887 | 2.50213 | 34824 ft | 496 kts | 128° |
| 2026-05-05 22:14 | 13.22786 | 2.55901 | 34835 ft | 495 kts | 128° |
| 2026-05-05 22:14 | 13.18692 | 2.61582 | 34828 ft | 494 kts | 128° |
| 2026-05-05 22:15 | 13.14610 | 2.67244 | 34837 ft | 493 kts | 128° |
| 2026-05-05 22:15 | 13.10527 | 2.72903 | 34830 ft | 493 kts | 128° |
| 2026-05-05 22:16 | 13.06456 | 2.78542 | 34835 ft | 492 kts | 128° |
| 2026-05-05 22:16 | 13.02391 | 2.84168 | 34842 ft | 491 kts | 128° |
| 2026-05-05 22:17 | 12.98327 | 2.89791 | 34839 ft | 490 kts | 128° |
| 2026-05-05 22:17 | 12.94275 | 2.95393 | 34832 ft | 489 kts | 128° |
| 2026-05-05 22:18 | 12.90221 | 3.00995 | 34836 ft | 488 kts | 128° |
| 2026-05-05 22:18 | 12.86176 | 3.06580 | 34836 ft | 488 kts | 128° |
| 2026-05-05 22:19 | 12.82133 | 3.12159 | 34831 ft | 488 kts | 127° |
| 2026-05-05 22:19 | 12.78087 | 3.17740 | 34837 ft | 487 kts | 127° |
| 2026-05-05 22:20 | 12.74047 | 3.23309 | 34838 ft | 487 kts | 127° |
| 2026-05-05 22:20 | 12.70000 | 3.28883 | 34840 ft | 487 kts | 127° |
| 2026-05-05 22:21 | 12.65961 | 3.34445 | 34837 ft | 487 kts | 127° |
| 2026-05-05 22:21 | 12.61918 | 3.40009 | 34831 ft | 487 kts | 127° |
| 2026-05-05 22:22 | 12.57871 | 3.45574 | 34842 ft | 487 kts | 127° |
| 2026-05-05 22:22 | 12.53850 | 3.51104 | 34840 ft | 487 kts | 127° |
| 2026-05-05 22:23 | 12.49805 | 3.56668 | 34842 ft | 487 kts | 127° |
| 2026-05-05 22:23 | 12.45755 | 3.62233 | 34840 ft | 488 kts | 128° |
| 2026-05-05 22:24 | 12.41342 | 3.67487 | 34852 ft | 486 kts | 134° |
| 2026-05-05 22:24 | 12.36682 | 3.72500 | 34843 ft | 487 kts | 135° |
| 2026-05-05 22:25 | 12.32025 | 3.77525 | 34838 ft | 487 kts | 134° |
| 2026-05-05 22:25 | 12.27405 | 3.82586 | 34841 ft | 487 kts | 133° |
| 2026-05-05 22:26 | 12.22803 | 3.87654 | 34847 ft | 486 kts | 133° |
| 2026-05-05 22:26 | 12.18194 | 3.92728 | 34844 ft | 486 kts | 133° |
| 2026-05-05 22:27 | 12.13589 | 3.97792 | 34840 ft | 486 kts | 133° |
| 2026-05-05 22:27 | 12.08987 | 4.02847 | 34838 ft | 486 kts | 133° |
| 2026-05-05 22:28 | 12.04380 | 4.07905 | 34840 ft | 486 kts | 133° |
| 2026-05-05 22:28 | 11.99775 | 4.12959 | 34840 ft | 486 kts | 133° |
| 2026-05-05 22:29 | 11.95171 | 4.18010 | 34840 ft | 486 kts | 133° |
| 2026-05-05 22:29 | 11.90568 | 4.23055 | 34847 ft | 486 kts | 133° |
| 2026-05-05 22:30 | 11.85958 | 4.28103 | 34850 ft | 486 kts | 133° |
| 2026-05-05 22:30 | 11.81351 | 4.33143 | 34846 ft | 485 kts | 133° |
| 2026-05-05 22:31 | 11.76749 | 4.38176 | 34851 ft | 485 kts | 133° |
| 2026-05-05 22:31 | 11.72142 | 4.43213 | 34853 ft | 485 kts | 133° |
| 2026-05-05 22:32 | 11.67548 | 4.48235 | 34850 ft | 484 kts | 133° |
| 2026-05-05 22:32 | 11.62951 | 4.53257 | 34850 ft | 484 kts | 133° |
| 2026-05-05 22:33 | 11.58355 | 4.58267 | 34849 ft | 484 kts | 133° |
| 2026-05-05 22:33 | 11.53726 | 4.63245 | 34862 ft | 483 kts | 133° |
| 2026-05-05 22:34 | 11.49093 | 4.68203 | 34855 ft | 483 kts | 133° |
| 2026-05-05 22:34 | 11.44491 | 4.73135 | 34868 ft | 483 kts | 133° |
| 2026-05-05 22:35 | 11.39866 | 4.78096 | 34861 ft | 483 kts | 133° |
| 2026-05-05 22:35 | 11.35231 | 4.83068 | 34871 ft | 483 kts | 133° |
| 2026-05-05 22:36 | 11.30602 | 4.88031 | 34871 ft | 484 kts | 133° |
| 2026-05-05 22:36 | 11.25957 | 4.93008 | 34877 ft | 484 kts | 133° |
| 2026-05-05 22:37 | 11.21313 | 4.97980 | 34878 ft | 485 kts | 133° |
| 2026-05-05 22:37 | 11.16666 | 5.02954 | 34881 ft | 485 kts | 133° |
| 2026-05-05 22:38 | 11.12014 | 5.07931 | 34883 ft | 485 kts | 133° |
| 2026-05-05 22:38 | 11.07359 | 5.12909 | 34880 ft | 485 kts | 133° |
| 2026-05-05 22:39 | 11.02708 | 5.17879 | 34881 ft | 485 kts | 133° |
| 2026-05-05 22:39 | 10.98056 | 5.22849 | 34890 ft | 484 kts | 133° |
| 2026-05-05 22:40 | 10.93411 | 5.27808 | 34896 ft | 483 kts | 133° |
| 2026-05-05 22:40 | 10.88778 | 5.32752 | 34892 ft | 483 kts | 133° |
| 2026-05-05 22:41 | 10.84142 | 5.37697 | 34901 ft | 482 kts | 133° |
| 2026-05-05 22:41 | 10.79518 | 5.42626 | 34907 ft | 481 kts | 133° |
| 2026-05-05 22:42 | 10.74900 | 5.47548 | 34904 ft | 481 kts | 133° |
| 2026-05-05 22:42 | 10.70285 | 5.52463 | 34913 ft | 480 kts | 133° |
| 2026-05-05 22:43 | 10.65676 | 5.57370 | 34910 ft | 479 kts | 133° |
| 2026-05-05 22:43 | 10.61074 | 5.62267 | 34902 ft | 479 kts | 133° |
| 2026-05-05 22:44 | 10.56469 | 5.67166 | 34906 ft | 478 kts | 133° |
| 2026-05-05 22:44 | 10.51872 | 5.72054 | 34909 ft | 478 kts | 133° |
| 2026-05-05 22:45 | 10.47308 | 5.76904 | 34902 ft | 478 kts | 133° |
| 2026-05-05 22:45 | 10.42713 | 5.81786 | 34906 ft | 478 kts | 133° |
| 2026-05-05 22:46 | 10.38116 | 5.86667 | 34910 ft | 478 kts | 133° |
| 2026-05-05 22:46 | 10.33520 | 5.91546 | 34902 ft | 478 kts | 133° |
| 2026-05-05 22:47 | 10.28916 | 5.96439 | 34906 ft | 479 kts | 133° |
| 2026-05-05 22:47 | 10.24323 | 6.01330 | 34905 ft | 479 kts | 133° |
| 2026-05-05 22:48 | 10.19717 | 6.06231 | 34904 ft | 480 kts | 133° |
| 2026-05-05 22:48 | 10.15109 | 6.11132 | 34909 ft | 480 kts | 133° |
| 2026-05-05 22:49 | 10.10482 | 6.16032 | 34906 ft | 480 kts | 133° |
| 2026-05-05 22:49 | 10.05850 | 6.20916 | 34909 ft | 481 kts | 133° |
| 2026-05-05 22:50 | 10.01211 | 6.25811 | 34907 ft | 481 kts | 133° |
| 2026-05-05 22:50 | 9.96581 | 6.30699 | 34909 ft | 481 kts | 133° |
| 2026-05-05 22:51 | 9.91944 | 6.35590 | 34907 ft | 481 kts | 133° |
| 2026-05-05 22:51 | 9.87318 | 6.40481 | 34916 ft | 480 kts | 133° |
| 2026-05-05 22:52 | 9.82694 | 6.45375 | 34911 ft | 480 kts | 133° |
| 2026-05-05 22:52 | 9.78081 | 6.50256 | 34921 ft | 479 kts | 133° |
| 2026-05-05 22:53 | 9.73470 | 6.55131 | 34922 ft | 478 kts | 133° |
| 2026-05-05 22:53 | 9.68876 | 6.59997 | 34924 ft | 477 kts | 131° |
| 2026-05-05 22:54 | 9.64377 | 6.64943 | 34913 ft | 476 kts | 131° |
| 2026-05-05 22:54 | 9.59929 | 6.69889 | 34925 ft | 475 kts | 131° |
| 2026-05-05 22:55 | 9.55472 | 6.74822 | 34927 ft | 474 kts | 131° |
| 2026-05-05 22:55 | 9.51771 | 6.78905 | 34920 ft | 473 kts | 131° |
| 2026-05-05 22:56 | 9.47317 | 6.83811 | 34926 ft | 472 kts | 131° |
| 2026-05-05 22:56 | 9.42149 | 6.89503 | 34927 ft | 472 kts | 131° |
| 2026-05-05 22:57 | 9.38430 | 6.93599 | 34924 ft | 472 kts | 131° |
| 2026-05-05 22:57 | 9.33987 | 6.98491 | 34920 ft | 472 kts | 131° |
| 2026-05-05 22:58 | 9.29537 | 7.03374 | 34918 ft | 472 kts | 132° |
| 2026-05-05 22:58 | 9.24851 | 7.08057 | 34925 ft | 473 kts | 135° |
| 2026-05-05 22:59 | 9.20065 | 7.12645 | 34917 ft | 474 kts | 135° |
| 2026-05-05 22:59 | 9.15302 | 7.17260 | 34925 ft | 475 kts | 134° |
| 2026-05-05 23:00 | 9.08163 | 7.24238 | 34913 ft | 476 kts | 134° |
| 2026-05-05 23:00 | 9.03428 | 7.28861 | 34909 ft | 476 kts | 134° |
| 2026-05-05 23:01 | 8.98605 | 7.33533 | 34909 ft | 477 kts | 135° |
| 2026-05-05 23:01 | 8.93832 | 7.38139 | 34915 ft | 478 kts | 135° |
| 2026-05-05 23:02 | 8.89029 | 7.42776 | 34916 ft | 478 kts | 135° |
| 2026-05-05 23:02 | 8.84213 | 7.47428 | 34916 ft | 479 kts | 135° |
| 2026-05-05 23:03 | 8.79401 | 7.52077 | 34910 ft | 479 kts | 135° |
| 2026-05-05 23:03 | 8.74583 | 7.56728 | 34904 ft | 479 kts | 135° |
| 2026-05-05 23:04 | 8.69767 | 7.61376 | 34905 ft | 479 kts | 135° |
| 2026-05-05 23:04 | 8.64944 | 7.66029 | 34909 ft | 479 kts | 135° |
| 2026-05-05 23:05 | 8.60133 | 7.70670 | 34906 ft | 478 kts | 135° |
| 2026-05-05 23:05 | 8.55329 | 7.75301 | 34897 ft | 477 kts | 135° |
| 2026-05-05 23:06 | 8.50524 | 7.79931 | 34896 ft | 477 kts | 135° |
| 2026-05-05 23:06 | 8.45727 | 7.84553 | 34891 ft | 476 kts | 135° |
| 2026-05-05 23:07 | 8.40939 | 7.89165 | 34889 ft | 475 kts | 135° |
| 2026-05-05 23:07 | 8.36153 | 7.93772 | 34888 ft | 475 kts | 135° |
| 2026-05-05 23:08 | 8.31383 | 7.98364 | 34895 ft | 474 kts | 135° |
| 2026-05-05 23:08 | 8.26608 | 8.02958 | 34887 ft | 474 kts | 136° |
| 2026-05-05 23:09 | 8.21870 | 8.07516 | 34894 ft | 473 kts | 135° |
| 2026-05-05 23:09 | 8.17252 | 8.12246 | 34896 ft | 473 kts | 133° |
| 2026-05-05 23:10 | 8.12726 | 8.17062 | 34885 ft | 473 kts | 133° |
| 2026-05-05 23:10 | 8.08184 | 8.21864 | 34876 ft | 473 kts | 133° |
| 2026-05-05 23:11 | 8.03624 | 8.26644 | 34881 ft | 473 kts | 133° |
| 2026-05-05 23:11 | 7.99062 | 8.31413 | 34886 ft | 473 kts | 133° |
| 2026-05-05 23:12 | 7.94496 | 8.36184 | 34878 ft | 473 kts | 133° |
| 2026-05-05 23:12 | 7.89931 | 8.40955 | 34881 ft | 472 kts | 133° |
| 2026-05-05 23:13 | 7.85364 | 8.45728 | 34879 ft | 473 kts | 133° |
| 2026-05-05 23:13 | 7.80797 | 8.50499 | 34883 ft | 473 kts | 133° |
| 2026-05-05 23:14 | 7.76232 | 8.55267 | 34884 ft | 473 kts | 133° |
| 2026-05-05 23:14 | 7.71657 | 8.60030 | 34872 ft | 473 kts | 135° |
| 2026-05-05 23:15 | 7.66776 | 8.64485 | 34885 ft | 473 kts | 139° |
| 2026-05-05 23:15 | 7.61754 | 8.68789 | 34880 ft | 474 kts | 139° |
| 2026-05-05 23:16 | 7.56749 | 8.73116 | 34877 ft | 474 kts | 139° |
| 2026-05-05 23:16 | 7.51761 | 8.77480 | 34887 ft | 475 kts | 139° |
| 2026-05-05 23:17 | 7.46782 | 8.81850 | 34887 ft | 475 kts | 139° |
| 2026-05-05 23:17 | 7.41788 | 8.86230 | 34873 ft | 476 kts | 139° |
| 2026-05-05 23:18 | 7.36795 | 8.90606 | 34885 ft | 476 kts | 139° |
| 2026-05-05 23:18 | 7.31788 | 8.94992 | 34875 ft | 477 kts | 139° |
| 2026-05-05 23:19 | 7.26786 | 8.99372 | 34888 ft | 477 kts | 139° |
| 2026-05-05 23:19 | 7.22085 | 9.04085 | 34892 ft | 477 kts | 131° |
| 2026-05-05 23:20 | 7.17709 | 9.09102 | 34880 ft | 477 kts | 131° |
| 2026-05-05 23:20 | 7.13273 | 9.14067 | 34879 ft | 477 kts | 132° |
| 2026-05-05 23:21 | 7.08124 | 9.18118 | 34899 ft | 476 kts | 156° |
| 2026-05-05 23:21 | 7.04950 | 9.19205 | 34877 ft | 476 kts | 169° |
| 2026-05-05 23:21 | 7.01676 | 9.19572 | 34904 ft | 474 kts | 177° |
| 2026-05-05 23:22 | 6.95128 | 9.19916 | 34891 ft | 475 kts | 178° |
| 2026-05-05 23:22 | 6.88487 | 9.20273 | 34886 ft | 475 kts | 177° |
| 2026-05-05 23:23 | 6.81931 | 9.20684 | 34896 ft | 475 kts | 176° |
| 2026-05-05 23:23 | 6.75333 | 9.21124 | 34898 ft | 475 kts | 176° |
| 2026-05-05 23:24 | 6.68745 | 9.21566 | 34904 ft | 475 kts | 176° |
| 2026-05-05 23:24 | 6.62143 | 9.22006 | 34912 ft | 475 kts | 176° |
| 2026-05-05 23:25 | 6.55553 | 9.22443 | 34910 ft | 474 kts | 176° |
| 2026-05-05 23:25 | 6.48968 | 9.22880 | 34907 ft | 474 kts | 176° |
| 2026-05-05 23:26 | 6.42394 | 9.23316 | 34921 ft | 473 kts | 176° |
| 2026-05-05 23:26 | 6.35820 | 9.23752 | 34917 ft | 473 kts | 176° |
| 2026-05-05 23:27 | 6.29256 | 9.24187 | 34912 ft | 472 kts | 176° |
| 2026-05-05 23:27 | 6.22709 | 9.24622 | 34916 ft | 472 kts | 176° |
| 2026-05-05 23:28 | 6.16157 | 9.25059 | 34924 ft | 471 kts | 175° |
| 2026-05-05 23:28 | 6.09648 | 9.25758 | 34930 ft | 470 kts | 172° |
| 2026-05-05 23:29 | 6.03165 | 9.26581 | 34919 ft | 470 kts | 172° |
| 2026-05-05 23:29 | 5.96686 | 9.27366 | 34914 ft | 469 kts | 173° |
| 2026-05-05 23:30 | 5.90205 | 9.28122 | 34913 ft | 468 kts | 173° |
| 2026-05-05 23:30 | 5.83748 | 9.28871 | 34913 ft | 467 kts | 173° |
| 2026-05-05 23:31 | 5.77289 | 9.29622 | 34920 ft | 466 kts | 173° |
| 2026-05-05 23:31 | 5.70851 | 9.30375 | 34910 ft | 466 kts | 171° |
| 2026-05-05 23:32 | 5.64497 | 9.31602 | 34914 ft | 464 kts | 167° |
| 2026-05-05 23:32 | 5.58214 | 9.33032 | 34901 ft | 457 kts | 166° |
| 2026-05-05 23:33 | 5.55169 | 9.33723 | 34894 ft | 441 kts | 166° |
| 2026-05-05 23:33 | 5.52219 | 9.34383 | 34897 ft | 427 kts | 166° |
| 2026-05-05 23:33 | 5.49360 | 9.35014 | 34901 ft | 414 kts | 166° |
| 2026-05-05 23:33 | 5.46628 | 9.35612 | 34899 ft | 401 kts | 166° |
| 2026-05-05 23:34 | 5.43949 | 9.36196 | 34900 ft | 388 kts | 166° |
| 2026-05-05 23:34 | 5.41352 | 9.36760 | 34907 ft | 375 kts | 166° |
| 2026-05-05 23:34 | 5.36336 | 9.37851 | 34936 ft | 371 kts | 166° |
| 2026-05-05 23:35 | 5.31191 | 9.38972 | 34949 ft | 386 kts | 166° |
| 2026-05-05 23:35 | 5.25861 | 9.40133 | 34936 ft | 395 kts | 166° |
| 2026-05-05 23:36 | 5.20515 | 9.41294 | 34934 ft | 389 kts | 166° |
| 2026-05-05 23:36 | 5.15279 | 9.42431 | 34943 ft | 384 kts | 166° |
| 2026-05-05 23:37 | 5.10040 | 9.43569 | 34949 ft | 386 kts | 166° |
| 2026-05-05 23:37 | 5.04773 | 9.44714 | 34955 ft | 388 kts | 166° |
| 2026-05-05 23:38 | 4.99476 | 9.45865 | 34959 ft | 390 kts | 166° |
| 2026-05-05 23:38 | 4.94153 | 9.47021 | 34948 ft | 392 kts | 166° |
| 2026-05-05 23:39 | 4.88827 | 9.48178 | 34946 ft | 392 kts | 166° |
| 2026-05-05 23:39 | 4.83497 | 9.49334 | 34937 ft | 390 kts | 166° |
| 2026-05-05 23:40 | 4.78208 | 9.50482 | 34942 ft | 388 kts | 166° |
| 2026-05-05 23:40 | 4.72947 | 9.51624 | 34926 ft | 385 kts | 166° |
| 2026-05-05 23:41 | 4.67718 | 9.52759 | 34933 ft | 383 kts | 166° |
| 2026-05-05 23:41 | 4.62522 | 9.53887 | 34934 ft | 381 kts | 166° |
| 2026-05-05 23:42 | 4.58216 | 9.54822 | 34929 ft | 381 kts | 166° |
| 2026-05-05 23:42 | 4.52189 | 9.56129 | 34931 ft | 381 kts | 166° |
| 2026-05-05 23:43 | 4.47850 | 9.57128 | 34911 ft | 381 kts | 162° |
| 2026-05-05 23:43 | 4.45324 | 9.57944 | 34197 ft | 393 kts | 159° |
| 2026-05-05 23:43 | 4.42687 | 9.58918 | 32989 ft | 410 kts | 158° |
| 2026-05-05 23:44 | 4.40056 | 9.59939 | 32745 ft | 396 kts | 158° |
| 2026-05-05 23:44 | 4.37578 | 9.60882 | 33084 ft | 367 kts | 158° |
| 2026-05-05 23:44 | 4.35242 | 9.61715 | 33087 ft | 352 kts | 160° |
| 2026-05-05 23:44 | 4.32887 | 9.62485 | 32458 ft | 362 kts | 161° |
| 2026-05-05 23:45 | 4.30434 | 9.63205 | 31539 ft | 373 kts | 163° |
| 2026-05-05 23:45 | 4.27892 | 9.63856 | 30791 ft | 379 kts | 165° |
| 2026-05-05 23:45 | 4.25325 | 9.64403 | 30432 ft | 373 kts | 168° |
| 2026-05-05 23:45 | 4.22813 | 9.64819 | 30300 ft | 359 kts | 170° |
| 2026-05-05 23:46 | 4.20360 | 9.65106 | 30035 ft | 352 kts | 173° |
| 2026-05-05 23:46 | 4.17917 | 9.65276 | 29389 ft | 354 kts | 175° |
| 2026-05-05 23:46 | 4.15509 | 9.65757 | 28403 ft | 357 kts | 153° |
| 2026-05-05 23:46 | 4.13474 | 9.67238 | 26901 ft | 374 kts | 127° |
| 2026-05-05 23:47 | 4.12317 | 9.69582 | 25775 ft | 381 kts | 98° |
| 2026-05-05 23:47 | 4.12438 | 9.72149 | 25531 ft | 362 kts | 70° |
| 2026-05-05 23:47 | 4.13659 | 9.74186 | 25656 ft | 337 kts | 44° |
| 2026-05-05 23:47 | 4.15562 | 9.75500 | 25578 ft | 321 kts | 32° |
| 2026-05-05 23:48 | 4.17291 | 9.76767 | 25395 ft | 306 kts | 50° |
| 2026-05-05 23:48 | 4.18340 | 9.78606 | 24534 ft | 315 kts | 76° |
| 2026-05-05 23:48 | 4.18378 | 9.80873 | 23139 ft | 345 kts | 104° |
| 2026-05-05 23:48 | 4.17161 | 9.82990 | 22177 ft | 359 kts | 135° |
| 2026-05-05 23:49 | 4.15224 | 9.84499 | 21881 ft | 347 kts | 140° |
| 2026-05-05 23:49 | 4.13479 | 9.86092 | 21562 ft | 334 kts | 130° |
| 2026-05-05 23:49 | 4.11896 | 9.87746 | 21239 ft | 325 kts | 134° |
| 2026-05-05 23:49 | 4.10215 | 9.89225 | 20897 ft | 318 kts | 140° |
| 2026-05-05 23:50 | 4.08392 | 9.90456 | 20543 ft | 314 kts | 148° |
| 2026-05-05 23:50 | 4.06471 | 9.91443 | 20180 ft | 308 kts | 147° |
| 2026-05-05 23:50 | 4.04912 | 9.92856 | 19705 ft | 304 kts | 125° |
| 2026-05-05 23:50 | 4.03571 | 9.94597 | 19250 ft | 330 kts | 126° |
| 2026-05-05 23:51 | 4.02100 | 9.96477 | 18866 ft | 356 kts | 127° |
| 2026-05-05 23:51 | 4.00530 | 9.98482 | 18529 ft | 375 kts | 127° |
| 2026-05-05 23:51 | 3.98912 | 10.00551 | 18221 ft | 378 kts | 127° |
| 2026-05-05 23:51 | 3.97291 | 10.02623 | 17881 ft | 376 kts | 127° |
| 2026-05-05 23:52 | 3.95682 | 10.04677 | 17537 ft | 373 kts | 127° |
| 2026-05-05 23:52 | 3.94082 | 10.06714 | 17207 ft | 371 kts | 127° |
| 2026-05-05 23:52 | 3.92488 | 10.08735 | 16875 ft | 369 kts | 127° |
| 2026-05-05 23:52 | 3.90898 | 10.10744 | 16551 ft | 367 kts | 127° |
| 2026-05-05 23:53 | 3.89317 | 10.12737 | 16234 ft | 364 kts | 127° |
| 2026-05-05 23:53 | 3.87742 | 10.14713 | 15922 ft | 362 kts | 127° |
| 2026-05-05 23:53 | 3.86171 | 10.16678 | 15619 ft | 360 kts | 127° |
| 2026-05-05 23:53 | 3.84605 | 10.18630 | 15313 ft | 358 kts | 127° |
| 2026-05-05 23:54 | 3.83064 | 10.20542 | 15159 ft | 345 kts | 127° |
| 2026-05-05 23:54 | 3.81578 | 10.22342 | 15052 ft | 327 kts | 131° |
| 2026-05-05 23:54 | 3.79720 | 10.23580 | 14731 ft | 322 kts | 156° |
| 2026-05-05 23:54 | 3.77459 | 10.23903 | 13759 ft | 343 kts | 182° |
| 2026-05-05 23:55 | 3.75081 | 10.23321 | 12644 ft | 359 kts | 195° |
| 2026-05-05 23:55 | 3.72785 | 10.22272 | 11623 ft | 370 kts | 213° |
| 2026-05-05 23:55 | 3.71062 | 10.20355 | 10828 ft | 373 kts | 241° |
| 2026-05-05 23:55 | 3.70161 | 10.17950 | 10192 ft | 367 kts | 256° |
| 2026-05-05 23:56 | 3.69591 | 10.15519 | 9959 ft | 348 kts | 264° |
| 2026-05-05 23:56 | 3.69774 | 10.13217 | 9808 ft | 321 kts | 294° |
| 2026-05-05 23:56 | 3.70809 | 10.11380 | 9711 ft | 296 kts | 311° |
| 2026-05-05 23:56 | 3.72031 | 10.09789 | 9513 ft | 283 kts | 313° |
| 2026-05-05 23:57 | 3.73255 | 10.08261 | 9096 ft | 280 kts | 313° |
| 2026-05-05 23:57 | 3.74603 | 10.06895 | 8621 ft | 272 kts | 334° |
| 2026-05-05 23:57 | 3.76363 | 10.06417 | 8161 ft | 261 kts | 4° |
| 2026-05-05 23:57 | 3.78154 | 10.06579 | 7723 ft | 258 kts | 9° |
| 2026-05-05 23:58 | 3.79942 | 10.06801 | 7250 ft | 259 kts | 9° |
| 2026-05-05 23:58 | 3.81705 | 10.07124 | 6784 ft | 258 kts | 24° |
| 2026-05-05 23:58 | 3.83082 | 10.08230 | 6296 ft | 257 kts | 58° |
| 2026-05-05 23:58 | 3.83552 | 10.09931 | 5813 ft | 258 kts | 93° |
| 2026-05-05 23:59 | 3.83055 | 10.11632 | 5528 ft | 256 kts | 123° |
| 2026-05-05 23:59 | 3.81732 | 10.12768 | 5544 ft | 254 kts | 158° |
| 2026-05-05 23:59 | 3.79972 | 10.12935 | 5555 ft | 261 kts | 193° |
| 2026-05-05 23:59 | 3.78424 | 10.12061 | 5543 ft | 257 kts | 229° |
| 2026-05-06 00:00 | 3.77688 | 10.10498 | 5531 ft | 249 kts | 264° |
| 2026-05-06 00:00 | 3.77853 | 10.08810 | 5539 ft | 244 kts | 291° |
| 2026-05-06 00:00 | 3.78629 | 10.07299 | 5561 ft | 244 kts | 303° |
| 2026-05-06 00:00 | 3.79571 | 10.05870 | 5560 ft | 247 kts | 305° |
| 2026-05-06 00:01 | 3.80672 | 10.04541 | 5432 ft | 253 kts | 316° |
| 2026-05-06 00:01 | 3.81946 | 10.03295 | 5165 ft | 256 kts | 316° |
| 2026-05-06 00:01 | 3.83209 | 10.02076 | 4887 ft | 248 kts | 316° |
| 2026-05-06 00:01 | 3.84444 | 10.00906 | 4632 ft | 241 kts | 316° |
| 2026-05-06 00:02 | 3.85650 | 9.99779 | 4385 ft | 234 kts | 316° |
| 2026-05-06 00:02 | 3.86836 | 9.98672 | 4164 ft | 232 kts | 313° |
| 2026-05-06 00:02 | 3.87739 | 9.97367 | 4049 ft | 224 kts | 297° |
| 2026-05-06 00:02 | 3.88447 | 9.96010 | 3944 ft | 217 kts | 296° |
| 2026-05-06 00:03 | 3.89126 | 9.94689 | 3840 ft | 211 kts | 296° |
| 2026-05-06 00:03 | 3.89780 | 9.93408 | 3796 ft | 208 kts | 296° |
| 2026-05-06 00:03 | 3.90453 | 9.92098 | 3670 ft | 212 kts | 296° |
| 2026-05-06 00:03 | 3.91114 | 9.90799 | 3447 ft | 217 kts | 295° |
| 2026-05-06 00:04 | 3.91804 | 9.89429 | 3217 ft | 217 kts | 295° |
| 2026-05-06 00:04 | 3.92476 | 9.88094 | 2973 ft | 213 kts | 295° |
| 2026-05-06 00:04 | 3.93136 | 9.86783 | 2755 ft | 208 kts | 295° |
| 2026-05-06 00:04 | 3.93780 | 9.85503 | 2627 ft | 209 kts | 295° |
| 2026-05-06 00:05 | 3.95108 | 9.82864 | 2102 ft | 212 kts | 294° |
| 2026-05-06 00:05 | 3.95756 | 9.81579 | 1825 ft | 201 kts | 294° |
| 2026-05-06 00:05 | 3.96367 | 9.80365 | 1577 ft | 191 kts | 294° |
| 2026-05-06 00:06 | 3.96953 | 9.79199 | 1337 ft | 186 kts | 295° |
| 2026-05-06 00:06 | 3.97537 | 9.78039 | 1115 ft | 188 kts | 295° |
| 2026-05-06 00:06 | 3.98127 | 9.76868 | 878 ft | 187 kts | 295° |
| 2026-05-06 00:06 | 3.98693 | 9.75742 | 668 ft | 173 kts | 296° |
| 2026-05-06 00:07 | 3.99209 | 9.74717 | 411 ft | 157 kts | 296° |
| 2026-05-06 00:07 | 3.99682 | 9.73779 | 215 ft | 146 kts | 296° |
| 2026-05-06 00:07 | 4.00136 | 9.72886 | 27 ft | 140 kts | 296° |
| 2026-05-06 00:07 | 4.00518 | 9.72134 | 30 ft | 105 kts | 296° |
| 2026-05-06 00:08 | 4.00791 | 9.71586 | 32 ft | 40 kts | 296° |
| 2026-05-06 00:08 | 4.00834 | 9.71513 | 35 ft | 10 kts | 0° |
| 2026-05-06 00:08 | 4.00837 | 9.71514 | 35 ft | 0 kts | 13° |